Time;durP1;ratioP1;P1;durP2;ratioP2;P2;SDS_P1;SDS_P2;PMS_P1;PMS_P2;Temp;Humidity;BMP_temperature;BMP_pressure;BME280_temperature;BME280_humidity;BME280_pressure;Samples;Min_cycle;Max_cycle;Signal;HPM_P1;HPM_P2
2023/01/12 01:07:12;;;;;;;21.83;15.05;;;8.30;66.90;;;;;;6302469;22;20466;-76
2023/01/12 01:09:37;;;;;;;17.27;10.83;;;8.30;66.30;;;;;;6278682;22;20587;-76
2023/01/12 01:12:05;;;;;;;20.42;14.50;;;8.40;66.60;;;;;;6275777;22;20257;-77
2023/01/12 01:14:31;;;;;;;23.58;14.98;;;8.50;66.20;;;;;;6276767;22;20022;-76
2023/01/12 01:16:56;;;;;;;21.42;15.18;;;8.60;66.00;;;;;;6276827;22;20046;-74
2023/01/12 01:19:22;;;;;;;23.02;14.80;;;8.50;66.00;;;;;;6276902;22;20432;-76
2023/01/12 01:21:48;;;;;;;24.60;15.63;;;8.50;66.50;;;;;;6275219;22;20031;-74
2023/01/12 01:24:14;;;;;;;20.38;14.57;;;8.40;66.10;;;;;;6276748;22;20015;-77
2023/01/12 01:26:41;;;;;;;20.52;14.57;;;8.40;67.00;;;;;;6276851;22;20014;-76
2023/01/12 01:29:07;;;;;;;21.00;14.40;;;8.30;66.40;;;;;;6276553;22;19999;-75
2023/01/12 01:31:33;;;;;;;21.98;14.73;;;8.10;67.10;;;;;;6276210;22;20012;-76
2023/01/12 01:33:58;;;;;;;21.15;14.25;;;8.10;67.00;;;;;;6275019;22;20079;-75
2023/01/12 01:36:24;;;;;;;23.25;14.77;;;8.10;67.00;;;;;;6277026;22;20421;-76
2023/01/12 01:38:50;;;;;;;20.30;14.50;;;8.20;67.50;;;;;;6274813;22;20004;-78
2023/01/12 01:41:31;;;;;;;23.50;14.27;;;8.30;67.40;;;;;;6274983;22;20011;-75
2023/01/12 01:44:05;;;;;;;23.75;15.02;;;8.30;67.40;;;;;;6274833;22;20003;-76
2023/01/12 01:46:46;;;;;;;22.33;14.60;;;8.40;68.30;;;;;;6274990;22;20447;-76
2023/01/12 01:49:12;;;;;;;23.33;15.23;;;8.30;68.40;;;;;;6276087;22;20004;-76
2023/01/12 01:51:38;;;;;;;23.40;14.70;;;8.20;67.10;;;;;;6276512;22;20073;-75
2023/01/12 01:54:05;;;;;;;23.65;14.50;;;8.20;67.40;;;;;;6274611;22;20416;-74
2023/01/12 01:56:32;;;;;;;23.67;15.38;;;8.20;67.60;;;;;;6274936;22;20042;-74
2023/01/12 01:59:03;;;;;;;25.83;14.93;;;8.20;67.30;;;;;;6276420;22;20004;-77
2023/01/12 02:01:28;;;;;;;22.73;15.18;;;8.20;67.50;;;;;;6275120;22;20011;-77
2023/01/12 02:03:55;;;;;;;21.77;14.68;;;8.20;67.50;;;;;;6276412;22;20038;-75
2023/01/12 02:06:24;;;;;;;22.30;15.18;;;8.30;67.50;;;;;;6276551;22;20053;-75
2023/01/12 02:09:09;;;;;;;20.70;14.18;;;8.30;67.30;;;;;;6299041;22;20122;-75
2023/01/12 02:17:15;;;;;;;25.23;14.82;;;8.20;69.40;;;;;;6307272;22;19906;-75
2023/01/12 02:19:59;;;;;;;22.42;14.90;;;8.10;69.70;;;;;;6305394;22;20402;-75
2023/01/12 02:22:40;;;;;;;19.15;13.35;;;8.00;68.10;;;;;;6305505;22;20096;-78
2023/01/12 02:25:43;;;;;;;21.05;14.15;;;8.00;69.50;;;;;;6305662;22;20003;-75
2023/01/12 02:28:46;;;;;;;21.42;13.68;;;7.90;69.50;;;;;;6304995;22;20071;-75
2023/01/12 02:31:40;;;;;;;21.67;13.65;;;7.90;69.80;;;;;;6306845;22;20120;-75
2023/01/12 02:34:24;;;;;;;20.63;13.95;;;8.00;69.60;;;;;;6307031;22;19999;-75
2023/01/12 02:37:06;;;;;;;17.00;11.70;;;8.10;69.30;;;;;;6305334;22;20038;-75
2023/01/12 02:39:40;;;;;;;17.25;11.90;;;8.10;68.50;;;;;;6305269;22;20360;-74
2023/01/12 02:42:42;;;;;;;21.83;12.40;;;8.20;68.10;;;;;;6304921;22;20495;-75
2023/01/12 02:45:33;;;;;;;20.95;11.80;;;8.10;67.60;;;;;;6306900;22;20002;-76
2023/01/12 02:48:36;;;;;;;18.35;11.80;;;8.10;67.50;;;;;;6307307;22;19995;-77
2023/01/12 02:51:17;;;;;;;20.13;11.88;;;8.20;67.90;;;;;;6304800;22;20019;-76
2023/01/12 02:53:48;;;;;;;20.67;12.73;;;8.20;66.20;;;;;;6306561;22;19999;-76
2023/01/12 02:56:32;;;;;;;16.73;12.30;;;8.30;66.30;;;;;;6304893;22;20068;-76
2023/01/12 02:59:02;;;;;;;18.50;12.15;;;8.30;66.00;;;;;;6306621;22;20056;-76
2023/01/12 03:01:29;;;;;;;21.17;12.20;;;8.30;66.20;;;;;;6306353;22;19995;-76
2023/01/12 03:04:00;;;;;;;16.33;11.57;;;8.30;66.10;;;;;;6304858;22;20007;-76
2023/01/12 03:06:42;;;;;;;18.15;11.82;;;8.30;66.10;;;;;;6305111;22;20336;-76
2023/01/12 03:09:08;;;;;;;14.98;11.15;;;8.30;66.20;;;;;;6334870;22;20018;-75
2023/01/12 03:11:37;;;;;;;17.27;11.98;;;8.30;66.00;;;;;;6309762;22;20022;-75
2023/01/12 03:14:05;;;;;;;16.65;10.82;;;8.30;65.70;;;;;;6309849;22;20086;-75
2023/01/12 03:16:33;;;;;;;18.20;10.77;;;8.40;65.60;;;;;;6337867;22;20003;-74
2023/01/12 03:19:08;;;;;;;15.75;11.10;;;8.40;65.50;;;;;;6310148;22;20435;-76
2023/01/12 03:21:48;;;;;;;16.55;11.68;;;8.40;66.40;;;;;;6310264;22;20018;-74
2023/01/12 03:24:17;;;;;;;17.10;10.40;;;8.40;66.30;;;;;;6337878;22;20026;-75
2023/01/12 03:26:48;;;;;;;18.98;11.40;;;8.40;65.50;;;;;;6337691;22;19998;-77
2023/01/12 03:29:32;;;;;;;17.25;11.00;;;8.40;65.40;;;;;;6338103;22;20048;-76
2023/01/12 03:31:58;;;;;;;16.92;10.13;;;8.30;65.70;;;;;;6310811;22;20338;-75
2023/01/12 03:34:25;;;;;;;16.67;10.82;;;8.40;65.80;;;;;;6310627;22;20082;-76
2023/01/12 03:36:56;;;;;;;16.52;10.68;;;8.40;65.40;;;;;;6310431;22;20007;-76
2023/01/12 03:39:37;;;;;;;14.68;10.15;;;8.40;65.70;;;;;;6337739;22;20066;-76
2023/01/12 03:42:06;;;;;;;15.75;10.13;;;8.40;66.40;;;;;;6310165;22;20006;-76
2023/01/12 03:45:07;;;;;;;16.48;9.98;;;8.50;66.60;;;;;;6337808;22;19995;-78
2023/01/12 03:47:35;;;;;;;17.75;9.80;;;8.40;66.50;;;;;;6337646;22;20010;-75
2023/01/12 03:50:13;;;;;;;15.77;10.15;;;8.40;66.60;;;;;;6309646;22;20407;-75
2023/01/12 03:52:41;;;;;;;14.70;10.25;;;8.30;67.40;;;;;;6309877;22;20018;-74
2023/01/12 03:55:10;;;;;;;16.42;10.55;;;8.30;66.70;;;;;;6337549;22;20006;-75
2023/01/12 03:57:38;;;;;;;14.90;10.52;;;8.30;66.60;;;;;;6337516;22;20077;-77
2023/01/12 04:00:08;;;;;;;16.27;10.65;;;8.40;66.80;;;;;;6309997;22;20349;-76
2023/01/12 04:02:34;;;;;;;15.38;10.40;;;8.40;67.70;;;;;;6337544;22;20375;-75
2023/01/12 04:05:00;;;;;;;15.30;10.02;;;8.40;67.20;;;;;;6309718;22;20108;-75
2023/01/12 04:07:26;;;;;;;15.18;10.45;;;8.40;67.30;;;;;;6337467;22;20019;-77
2023/01/12 04:09:51;;;;;;;13.55;10.27;;;8.40;67.50;;;;;;6309755;22;20015;-75
2023/01/12 04:12:17;;;;;;;14.85;9.75;;;8.40;67.70;;;;;;6337927;22;20009;-76
2023/01/12 04:14:44;;;;;;;17.65;10.40;;;8.50;68.00;;;;;;6340217;22;20003;-76
2023/01/12 04:17:12;;;;;;;18.13;10.43;;;8.50;67.90;;;;;;6311945;22;20010;-75
2023/01/12 04:19:38;;;;;;;15.95;10.75;;;8.40;67.90;;;;;;6339607;22;20481;-76
2023/01/12 04:24:49;;;;;;;14.05;9.98;;;8.50;68.70;;;;;;6339431;22;20456;-77
2023/01/12 04:27:15;;;;;;;13.68;10.55;;;8.50;69.10;;;;;;6311727;22;20010;-77
2023/01/12 04:29:41;;;;;;;15.57;10.45;;;8.60;68.50;;;;;;6311826;22;20010;-76
2023/01/12 04:32:08;;;;;;;14.60;10.05;;;8.60;68.60;;;;;;6339611;22;20441;-75
2023/01/12 04:34:34;;;;;;;16.50;10.85;;;8.50;68.50;;;;;;6339244;22;20022;-75
2023/01/12 04:37:01;;;;;;;14.95;10.75;;;8.50;69.20;;;;;;6311533;22;20014;-76
2023/01/12 04:39:27;;;;;;;15.45;10.40;;;8.50;69.20;;;;;;6311424;22;20026;-74
2023/01/12 04:41:53;;;;;;;13.75;9.60;;;8.50;69.90;;;;;;6339282;22;20365;-75
2023/01/12 04:44:19;;;;;;;13.07;9.88;;;8.50;69.60;;;;;;6311342;22;20101;-75
2023/01/12 04:46:47;;;;;;;12.73;9.32;;;8.50;69.60;;;;;;6339235;22;20360;-75
2023/01/12 04:49:13;;;;;;;12.93;8.95;;;8.50;69.80;;;;;;6311397;22;20003;-76
2023/01/12 04:51:39;;;;;;;15.75;9.82;;;8.50;70.40;;;;;;6339201;22;20014;-76
2023/01/12 04:54:04;;;;;;;13.77;9.98;;;8.50;70.50;;;;;;6339127;22;20006;-75
2023/01/12 04:56:30;;;;;;;13.63;9.75;;;8.50;70.70;;;;;;6311544;22;20014;-76
2023/01/12 04:58:59;;;;;;;13.95;9.35;;;8.50;70.20;;;;;;6338989;22;20033;-75
2023/01/12 05:01:26;;;;;;;14.02;9.45;;;8.50;70.40;;;;;;6311300;22;20439;-77
2023/01/12 05:03:59;;;;;;;15.55;9.05;;;8.50;70.00;;;;;;6338684;22;20312;-77
2023/01/12 05:06:25;;;;;;;15.57;9.93;;;8.50;70.20;;;;;;6310932;22;20017;-75
2023/01/12 05:11:36;;;;;;;12.88;9.13;;;8.50;70.60;;;;;;6338845;22;20099;-76
2023/01/12 05:14:02;;;;;;;11.80;8.85;;;8.50;71.00;;;;;;6311313;22;20431;-75
2023/01/12 05:16:28;;;;;;;13.88;8.93;;;8.60;70.90;;;;;;6311096;22;20018;-77
2023/01/12 05:18:54;;;;;;;12.55;8.93;;;8.60;70.90;;;;;;6311405;22;20060;-76
2023/01/12 05:21:21;;;;;;;12.63;8.70;;;8.60;71.10;;;;;;6339153;22;20511;-76
2023/01/12 05:23:48;;;;;;;12.15;8.73;;;8.70;70.90;;;;;;6338590;22;20018;-76
2023/01/12 05:26:14;;;;;;;13.98;9.07;;;8.60;70.90;;;;;;6338680;22;19999;-75
2023/01/12 05:28:40;;;;;;;13.55;9.15;;;8.60;70.90;;;;;;6338481;22;20029;-76
2023/01/12 05:31:15;;;;;;;12.00;8.48;;;8.70;71.20;;;;;;6311016;22;20015;-75
2023/01/12 05:33:41;;;;;;;12.93;8.93;;;8.70;71.70;;;;;;6338803;22;20074;-75
2023/01/12 05:36:12;;;;;;;13.32;8.07;;;8.70;71.30;;;;;;6310860;22;20382;-75
2023/01/12 05:38:38;;;;;;;13.38;8.65;;;8.70;72.70;;;;;;6311113;22;20007;-76
2023/01/12 05:41:14;;;;;;;11.98;8.13;;;8.70;71.40;;;;;;6338527;22;20407;-75
2023/01/12 05:43:49;;;;;;;13.27;8.90;;;8.70;71.20;;;;;;6310780;22;20007;-75
2023/01/12 05:46:26;;;;;;;13.02;8.98;;;8.80;71.70;;;;;;6338541;22;20014;-77
2023/01/12 05:48:53;;;;;;;12.13;8.60;;;8.70;72.80;;;;;;6338344;22;20072;-75
2023/01/12 05:51:19;;;;;;;13.85;8.48;;;8.70;71.40;;;;;;6310525;22;20457;-75
2023/01/12 05:53:46;;;;;;;12.93;8.70;;;8.70;72.20;;;;;;6338288;22;20021;-75
2023/01/12 05:56:25;;;;;;;14.52;8.35;;;8.60;72.60;;;;;;6310849;22;20007;-75
2023/01/12 05:58:52;;;;;;;11.23;8.10;;;8.70;74.60;;;;;;6338203;22;20090;-76
2023/01/12 06:01:18;;;;;;;13.77;8.45;;;8.70;72.10;;;;;;6310234;22;20014;-75
2023/01/12 06:03:49;;;;;;;12.75;8.68;;;8.70;71.90;;;;;;6338112;22;20048;-75
2023/01/12 06:06:15;;;;;;;12.20;7.80;;;8.70;71.80;;;;;;6338316;22;20078;-76
2023/01/12 06:08:41;;;;;;;10.77;8.00;;;8.70;72.60;;;;;;6310389;22;20151;-74
2023/01/12 06:13:55;;;;;;;12.77;8.65;;;8.70;72.70;;;;;;6310820;22;20097;-76
2023/01/12 06:13:58;;;;;;;12.80;8.45;;;8.70;73.10;;;;;;6338123;22;20320;-76
2023/01/12 06:16:25;;;;;;;13.15;8.77;;;8.70;74.30;;;;;;6310701;22;20006;-76
2023/01/12 06:18:51;;;;;;;11.38;8.40;;;8.70;73.60;;;;;;6310479;22;20014;-76
2023/01/12 06:21:17;;;;;;;11.48;8.55;;;8.80;73.60;;;;;;6310216;22;20431;-76
2023/01/12 06:23:42;;;;;;;13.20;9.07;;;8.80;74.20;;;;;;6338021;22;20021;-75
2023/01/12 06:26:08;;;;;;;12.50;9.10;;;8.70;73.70;;;;;;6338105;22;20427;-74
2023/01/12 06:28:39;;;;;;;14.00;9.35;;;8.80;74.60;;;;;;6310180;22;19999;-75
2023/01/12 06:31:07;;;;;;;13.73;9.10;;;8.70;74.90;;;;;;6309911;22;20014;-77
2023/01/12 06:33:33;;;;;;;12.45;9.13;;;8.70;75.20;;;;;;6338089;22;19995;-77
2023/01/12 06:35:59;;;;;;;11.65;8.77;;;8.70;75.40;;;;;;6337947;22;20446;-77
2023/01/12 06:38:26;;;;;;;12.68;9.18;;;8.70;75.60;;;;;;6338147;22;20021;-76
2023/01/12 06:40:52;;;;;;;13.13;9.52;;;8.80;76.00;;;;;;6337944;22;20140;-76
2023/01/12 06:43:18;;;;;;;11.73;8.57;;;8.80;75.70;;;;;;6310253;22;20014;-76
2023/01/12 06:45:44;;;;;;;14.38;8.43;;;8.80;75.90;;;;;;6338040;22;19999;-75
2023/01/12 06:48:10;;;;;;;13.93;8.70;;;8.80;76.50;;;;;;6310350;22;20657;-77
2023/01/12 06:50:36;;;;;;;11.48;8.10;;;8.80;76.90;;;;;;6338071;22;20045;-75
2023/01/12 06:53:05;;;;;;;14.82;8.63;;;8.80;77.00;;;;;;6309826;22;20007;-76
2023/01/12 06:55:31;;;;;;;15.48;9.05;;;8.90;77.50;;;;;;6338377;22;20070;-78
2023/01/12 06:58:02;;;;;;;12.68;9.23;;;8.90;77.20;;;;;;6338266;22;20116;-73
2023/01/12 07:00:28;;;;;;;12.63;8.98;;;8.90;77.60;;;;;;6314697;22;20003;-77
2023/01/12 07:02:53;;;;;;;13.35;8.18;;;8.90;78.70;;;;;;6341331;22;20060;-76
2023/01/12 07:05:19;;;;;;;13.77;8.68;;;8.90;78.40;;;;;;6339356;22;19998;-78
2023/01/12 07:07:45;;;;;;;14.65;9.32;;;8.90;78.50;;;;;;6338350;22;20451;-76
2023/01/12 07:10:11;;;;;;;15.13;9.57;;;9.00;78.70;;;;;;6310631;22;20435;-75
2023/01/12 07:12:38;;;;;;;13.88;10.07;;;9.10;78.60;;;;;;6338015;22;20402;-76
2023/01/12 07:15:04;;;;;;;11.73;8.73;;;9.10;78.50;;;;;;6337540;22;20006;-74
2023/01/12 07:17:30;;;;;;;12.35;9.23;;;9.20;78.10;;;;;;6310123;22;20010;-77
2023/01/12 07:19:56;;;;;;;14.88;9.73;;;9.30;77.60;;;;;;6337978;22;20111;-76
2023/01/12 07:22:21;;;;;;;13.45;9.10;;;9.30;77.30;;;;;;6310192;22;20335;-77
2023/01/12 07:24:47;;;;;;;12.98;8.60;;;9.40;77.00;;;;;;6310367;22;20451;-77
2023/01/12 07:27:13;;;;;;;10.70;7.57;;;9.40;76.40;;;;;;6309587;22;20021;-78
2023/01/12 07:29:38;;;;;;;10.85;8.13;;;9.40;76.50;;;;;;6337476;22;20411;-76
2023/01/12 07:32:05;;;;;;;12.27;7.72;;;9.40;76.10;;;;;;6309548;22;20019;-77
2023/01/12 07:34:30;;;;;;;13.35;8.35;;;9.40;76.10;;;;;;6309550;22;20052;-77
2023/01/12 07:36:56;;;;;;;13.77;9.02;;;9.50;75.90;;;;;;6309687;22;20014;-76
2023/01/12 07:39:23;;;;;;;17.35;8.82;;;9.50;76.20;;;;;;6337528;22;20483;-76
2023/01/12 07:44:32;;;;;;;;;;;9.70;76.30;;;;;;6338917;22;20056;-75
2023/01/12 07:46:58;;;;;;;14.98;7.75;;;9.70;76.70;;;;;;6309353;22;19994;-74
2023/01/12 07:49:25;;;;;;;12.70;8.85;;;9.80;76.10;;;;;;6309375;22;20014;-76
2023/01/12 07:51:54;;;;;;;14.40;8.23;;;9.80;76.30;;;;;;6337151;22;20014;-75
2023/01/12 07:54:21;;;;;;;13.25;8.32;;;9.80;77.20;;;;;;6308996;22;20011;-74
2023/01/12 07:56:47;;;;;;;13.20;8.75;;;9.80;76.70;;;;;;6337090;22;19999;-74
2023/01/12 07:59:13;;;;;;;16.65;8.60;;;9.70;76.80;;;;;;6309159;22;20010;-75
2023/01/12 08:01:39;;;;;;;13.30;9.30;;;9.70;77.10;;;;;;6336771;22;20141;-76
2023/01/12 08:04:06;;;;;;;12.85;8.63;;;9.70;77.80;;;;;;6336855;22;20384;-76
2023/01/12 08:06:33;;;;;;;13.85;8.38;;;9.60;77.80;;;;;;6308835;22;20094;-76
2023/01/12 08:08:59;;;;;;;13.00;8.63;;;9.60;78.20;;;;;;6308816;22;20094;-75
2023/01/12 08:11:25;;;;;;;14.93;9.23;;;9.60;78.40;;;;;;6336409;22;20010;-74
2023/01/12 08:13:56;;;;;;;13.98;8.82;;;9.70;78.30;;;;;;6337128;22;20002;-75
2023/01/12 08:16:45;;;;;;;13.65;9.13;;;9.60;78.40;;;;;;6337945;22;20439;-76
2023/01/12 08:19:16;;;;;;;17.95;9.85;;;9.60;78.30;;;;;;6308811;22;20014;-76
2023/01/12 08:21:47;;;;;;;13.38;8.73;;;9.60;78.10;;;;;;6337142;22;20026;-75
2023/01/12 08:24:21;;;;;;;18.02;10.38;;;9.50;77.90;;;;;;6337208;22;19998;-75
2023/01/12 08:26:49;;;;;;;14.07;9.10;;;9.50;78.00;;;;;;6337294;22;19999;-76
2023/01/12 08:29:32;;;;;;;15.13;9.65;;;9.50;77.70;;;;;;6336966;22;20010;-77
2023/01/12 08:32:00;;;;;;;15.80;9.02;;;9.40;77.90;;;;;;6309024;22;20025;-75
2023/01/12 08:34:26;;;;;;;15.27;9.63;;;9.50;78.10;;;;;;6309369;22;20007;-74
2023/01/12 08:36:53;;;;;;;12.95;8.80;;;9.50;78.30;;;;;;6335674;22;20116;-74
2023/01/12 08:39:18;;;;;;;16.98;9.48;;;9.50;78.10;;;;;;6309121;22;20002;-74
2023/01/12 08:41:44;;;;;;;15.55;9.65;;;9.60;77.80;;;;;;6337081;22;20488;-73
2023/01/12 08:44:10;;;;;;;17.25;9.05;;;9.60;78.30;;;;;;6337092;22;20042;-73
2023/01/12 08:46:46;;;;;;;14.80;9.15;;;9.60;77.90;;;;;;6309091;22;20025;-74
2023/01/12 08:49:12;;;;;;;12.77;9.10;;;9.70;78.00;;;;;;6309313;22;20003;-73
2023/01/12 08:51:39;;;;;;;14.38;8.80;;;9.70;77.70;;;;;;6309239;22;20064;-74
2023/01/12 08:54:06;;;;;;;14.05;8.23;;;9.70;77.60;;;;;;6309016;22;19999;-73
2023/01/12 08:56:32;;;;;;;16.58;8.60;;;9.70;77.90;;;;;;6308874;22;20036;-74
2023/01/12 08:58:58;;;;;;;11.48;7.72;;;9.70;78.10;;;;;;6310039;22;20033;-72
2023/01/12 09:01:24;;;;;;;13.55;8.52;;;9.70;78.30;;;;;;6310896;22;20024;-74
2023/01/12 09:03:50;;;;;;;14.57;8.30;;;9.70;78.20;;;;;;6311128;22;20003;-73
2023/01/12 09:06:19;;;;;;;12.32;8.23;;;9.80;78.50;;;;;;6310325;22;20453;-80
2023/01/12 09:08:45;;;;;;;12.65;8.57;;;9.80;78.70;;;;;;6338302;22;20011;-77
2023/01/12 09:11:14;;;;;;;15.18;8.43;;;9.80;78.90;;;;;;6337821;22;20144;-77
2023/01/12 09:13:40;;;;;;;11.63;7.85;;;9.90;78.50;;;;;;6338041;22;20124;-78
2023/01/12 09:16:12;;;;;;;11.98;7.35;;;10.00;77.50;;;;;;6337979;22;20003;-77
2023/01/12 09:18:38;;;;;;;12.55;6.82;;;10.00;77.30;;;;;;6338086;22;20005;-78
2023/01/12 09:21:12;;;;;;;13.00;6.78;;;10.10;77.30;;;;;;6338276;22;20014;-77
2023/01/12 09:23:38;;;;;;;10.80;6.30;;;10.20;77.20;;;;;;6338159;22;20462;-78
2023/01/12 09:26:09;;;;;;;9.75;6.07;;;10.30;76.90;;;;;;6310278;22;20015;-75
2023/01/12 09:28:36;;;;;;;12.50;7.10;;;10.40;76.90;;;;;;6337922;22;19995;-77
2023/01/12 09:31:12;;;;;;;9.93;6.55;;;10.40;76.00;;;;;;6338067;22;20011;-76
2023/01/12 09:33:39;;;;;;;8.68;5.70;;;10.50;75.80;;;;;;6310776;22;20007;-77
2023/01/12 09:36:10;;;;;;;10.30;6.20;;;10.60;75.40;;;;;;6309928;22;20104;-76
2023/01/12 09:38:38;;;;;;;14.07;6.30;;;10.70;76.10;;;;;;6309184;22;20009;-75
2023/01/12 09:46:57;;;;;;;13.63;6.22;;;10.80;74.50;;;;;;6309922;22;20312;-78
2023/01/12 09:46:58;;;;;;;10.20;5.88;;;11.00;74.00;;;;;;6337892;22;20068;-80
2023/01/12 09:49:29;;;;;;;9.57;6.22;;;11.10;74.30;;;;;;6338139;22;20070;-77
2023/01/12 09:52:07;;;;;;;9.57;5.43;;;11.20;73.40;;;;;;6338368;22;20305;-75
2023/01/12 09:54:34;;;;;;;11.73;5.95;;;11.20;73.20;;;;;;6309605;22;20014;-75
2023/01/12 09:57:06;;;;;;;10.60;4.97;;;11.30;73.10;;;;;;6309465;22;20319;-76
2023/01/12 09:59:56;;;;;;;11.32;5.40;;;11.40;73.50;;;;;;6337172;22;20003;-77
2023/01/12 10:02:24;;;;;;;10.60;6.28;;;11.50;73.60;;;;;;6309043;22;20029;-75
2023/01/12 10:04:53;;;;;;;15.10;6.07;;;11.50;72.60;;;;;;6336751;22;20002;-74
2023/01/12 10:07:18;;;;;;;10.25;6.28;;;11.60;72.40;;;;;;6336673;22;20128;-72
2023/01/12 10:09:45;;;;;;;9.60;5.53;;;11.70;72.60;;;;;;6309276;22;20007;-72
2023/01/12 10:12:19;;;;;;;10.13;5.95;;;11.70;71.90;;;;;;6337224;22;20015;-72
2023/01/12 10:14:54;;;;;;;11.02;5.75;;;11.80;72.60;;;;;;6337190;22;20006;-73
2023/01/12 10:17:45;;;;;;;9.35;5.13;;;11.90;71.80;;;;;;6337532;22;20007;-72
2023/01/12 10:20:38;;;;;;;8.15;5.35;;;12.00;71.70;;;;;;6308975;22;20041;-73
2023/01/12 10:23:07;;;;;;;11.13;5.57;;;12.10;71.90;;;;;;6337125;22;20003;-71
2023/01/12 10:25:40;;;;;;;11.13;5.10;;;12.10;71.50;;;;;;6309911;22;20007;-71
2023/01/12 10:28:23;;;;;;;9.50;5.40;;;12.20;70.80;;;;;;6338240;22;20454;-73
2023/01/12 10:30:49;;;;;;;11.05;5.45;;;12.30;70.70;;;;;;6309883;22;20068;-72
2023/01/12 10:33:23;;;;;;;10.02;5.50;;;12.40;70.70;;;;;;6337699;22;19999;-70
2023/01/12 10:35:58;;;;;;;8.98;5.20;;;12.50;70.40;;;;;;6309233;22;20199;-70
2023/01/12 10:38:28;;;;;;;9.73;5.25;;;12.50;70.10;;;;;;6336808;22;20330;-72
2023/01/12 10:41:15;;;;;;;10.20;5.18;;;12.50;69.70;;;;;;6336773;22;20029;-73
2023/01/12 10:43:43;;;;;;;7.90;5.20;;;12.60;69.90;;;;;;6337416;22;20002;-72
2023/01/12 10:46:23;;;;;;;9.48;4.93;;;12.70;69.40;;;;;;6309861;22;20342;-72
2023/01/12 10:48:51;;;;;;;14.95;5.40;;;12.80;69.40;;;;;;6337910;22;19999;-71
2023/01/12 10:51:32;;;;;;;11.25;5.05;;;12.80;68.80;;;;;;6337029;22;20427;-71
2023/01/12 10:54:02;;;;;;;9.60;3.83;;;12.90;68.70;;;;;;6337704;22;20002;-73
2023/01/12 10:56:35;;;;;;;9.38;4.95;;;13.00;68.40;;;;;;6309872;22;20339;-71
2023/01/12 10:59:00;;;;;;;7.67;4.00;;;13.10;67.70;;;;;;6337173;22;20006;-72
2023/01/12 11:02:04;;;;;;;7.47;3.80;;;13.20;67.40;;;;;;6337093;22;20438;-71
2023/01/12 11:04:35;;;;;;;4.95;3.10;;;13.20;67.10;;;;;;6289371;22;20010;-72
2023/01/12 11:07:07;;;;;;;8.43;4.25;;;13.30;65.70;;;;;;6337271;22;19998;-73
2023/01/12 11:09:33;;;;;;;11.18;4.00;;;13.40;65.20;;;;;;6338030;22;20331;-74
2023/01/12 11:12:31;;;;;;;8.45;4.32;;;13.50;65.20;;;;;;6337845;22;20011;-71
2023/01/12 11:14:56;;;;;;;8.35;4.15;;;13.60;66.00;;;;;;6336204;22;20003;-72
2023/01/12 11:17:43;;;;;;;10.85;4.63;;;13.70;64.60;;;;;;6336948;22;20044;-72
2023/01/12 11:20:23;;;;;;;10.77;4.43;;;13.80;65.10;;;;;;6309065;22;20061;-74
2023/01/12 11:22:54;;;;;;;10.73;4.50;;;13.90;65.20;;;;;;6336724;22;20129;-71
2023/01/12 11:25:25;;;;;;;7.47;4.15;;;14.00;64.80;;;;;;6337065;22;20360;-71
2023/01/12 11:27:55;;;;;;;6.43;3.83;;;14.10;64.10;;;;;;6337582;22;20010;-70
2023/01/12 11:30:50;;;;;;;8.63;4.13;;;14.10;63.30;;;;;;6309505;22;20035;-70
2023/01/12 11:33:18;;;;;;;;;;;14.00;63.00;;;;;;6309103;22;20394;-73
2023/01/12 11:35:53;;;;;;;10.50;4.30;;;14.10;62.40;;;;;;6337373;22;20333;-75
2023/01/12 11:38:25;;;;;;;6.82;4.63;;;14.20;64.20;;;;;;6337321;22;20169;-78
2023/01/12 11:40:54;;;;;;;8.63;3.88;;;14.20;63.70;;;;;;6337945;22;19999;-74
2023/01/12 11:43:49;;;;;;;7.30;3.75;;;14.30;62.40;;;;;;6336390;22;20002;-75
2023/01/12 11:46:38;;;;;;;8.93;4.20;;;14.30;63.20;;;;;;6337409;22;20090;-78
2023/01/12 11:49:10;;;;;;;8.88;3.85;;;14.40;61.80;;;;;;6337479;22;20021;-79
2023/01/12 11:51:37;;;;;;;7.07;4.10;;;14.40;61.50;;;;;;6337246;22;20010;-77
2023/01/12 11:54:05;;;;;;;8.05;3.88;;;14.50;61.80;;;;;;6336619;22;20025;-77
2023/01/12 11:57:01;;;;;;;9.18;4.28;;;14.50;62.00;;;;;;6337128;22;19999;-77
2023/01/12 11:59:45;;;;;;;8.30;4.50;;;14.60;62.00;;;;;;6337423;22;19999;-77
2023/01/12 12:02:46;;;;;;;7.35;4.60;;;14.70;62.00;;;;;;6337019;22;20006;-76
2023/01/12 12:05:53;;;;;;;18.23;5.13;;;14.70;62.00;;;;;;6337128;22;20041;-78
2023/01/12 12:08:45;;;;;;;8.40;4.93;;;14.80;62.00;;;;;;6337409;22;20051;-78
2023/01/12 12:11:42;;;;;;;9.10;5.22;;;14.80;62.00;;;;;;6337034;22;20041;-78
2023/01/12 12:14:28;;;;;;;11.55;5.43;;;14.90;62.10;;;;;;6309128;22;20053;-79
2023/01/12 12:17:17;;;;;;;11.60;5.35;;;14.90;62.00;;;;;;6309949;22;20007;-78
2023/01/12 12:20:04;;;;;;;9.45;4.50;;;15.00;61.40;;;;;;6309530;22;20006;-76
2023/01/12 12:22:41;;;;;;;7.75;4.88;;;15.10;61.30;;;;;;6309807;22;20011;-77
2023/01/12 12:25:34;;;;;;;8.63;4.28;;;15.10;60.40;;;;;;6337555;22;20022;-77
2023/01/12 12:28:17;;;;;;;7.93;4.50;;;15.10;60.30;;;;;;6309594;22;20431;-78
2023/01/12 12:31:01;;;;;;;6.95;3.95;;;15.20;60.10;;;;;;6309443;22;20399;-78
2023/01/12 12:34:04;;;;;;;9.68;4.63;;;15.20;59.50;;;;;;6309809;22;20010;-78
2023/01/12 12:37:01;;;;;;;6.63;3.90;;;15.20;58.50;;;;;;6311540;22;20006;-77
2023/01/12 12:39:59;;;;;;;8.90;4.30;;;15.30;58.70;;;;;;6296462;22;20346;-80
